sensor_id;sensor_type;location;lat;lon;timestamp;temperature;humidity
4727;DHT22;2377;51.734;8.950;2023-11-21T00:00:45;8.00;99.90
4727;DHT22;2377;51.734;8.950;2023-11-21T00:03:13;8.00;99.90
4727;DHT22;2377;51.734;8.950;2023-11-21T00:05:40;8.10;99.90
4727;DHT22;2377;51.734;8.950;2023-11-21T00:08:08;8.00;99.90
4727;DHT22;2377;51.734;8.950;2023-11-21T00:10:36;8.00;99.90
4727;DHT22;2377;51.734;8.950;2023-11-21T00:13:04;8.00;99.90
4727;DHT22;2377;51.734;8.950;2023-11-21T00:15:31;8.00;99.90
4727;DHT22;2377;51.734;8.950;2023-11-21T00:18:00;8.00;99.90
4727;DHT22;2377;51.734;8.950;2023-11-21T00:20:27;8.00;99.90
4727;DHT22;2377;51.734;8.950;2023-11-21T00:22:55;8.00;99.90
4727;DHT22;2377;51.734;8.950;2023-11-21T00:25:23;8.00;99.90
4727;DHT22;2377;51.734;8.950;2023-11-21T00:27:50;8.00;99.90
4727;DHT22;2377;51.734;8.950;2023-11-21T00:30:20;8.00;99.90
4727;DHT22;2377;51.734;8.950;2023-11-21T00:32:48;8.00;99.90
4727;DHT22;2377;51.734;8.950;2023-11-21T00:35:16;8.00;99.90
4727;DHT22;2377;51.734;8.950;2023-11-21T00:37:43;8.00;99.90
4727;DHT22;2377;51.734;8.950;2023-11-21T00:40:11;8.00;99.90
4727;DHT22;2377;51.734;8.950;2023-11-21T00:42:41;8.10;99.90
4727;DHT22;2377;51.734;8.950;2023-11-21T00:45:09;8.00;99.90
4727;DHT22;2377;51.734;8.950;2023-11-21T00:47:39;8.00;99.90
4727;DHT22;2377;51.734;8.950;2023-11-21T00:50:07;8.00;99.90
4727;DHT22;2377;51.734;8.950;2023-11-21T00:52:36;8.00;99.90
4727;DHT22;2377;51.734;8.950;2023-11-21T00:55:05;7.90;99.90
4727;DHT22;2377;51.734;8.950;2023-11-21T00:57:35;7.80;99.90
4727;DHT22;2377;51.734;8.950;2023-11-21T01:00:03;7.80;99.90
4727;DHT22;2377;51.734;8.950;2023-11-21T01:02:34;7.70;99.90
4727;DHT22;2377;51.734;8.950;2023-11-21T01:05:02;7.60;97.50
4727;DHT22;2377;51.734;8.950;2023-11-21T01:07:29;7.60;99.90
4727;DHT22;2377;51.734;8.950;2023-11-21T01:09:58;7.50;93.30
4727;DHT22;2377;51.734;8.950;2023-11-21T01:12:25;7.40;86.30
4727;DHT22;2377;51.734;8.950;2023-11-21T01:14:53;7.30;82.10
4727;DHT22;2377;51.734;8.950;2023-11-21T01:17:20;7.30;99.90
4727;DHT22;2377;51.734;8.950;2023-11-21T01:19:49;7.20;99.90
4727;DHT22;2377;51.734;8.950;2023-11-21T01:22:16;7.20;99.90
4727;DHT22;2377;51.734;8.950;2023-11-21T01:24:47;7.20;97.80
4727;DHT22;2377;51.734;8.950;2023-11-21T01:27:19;7.10;99.90
4727;DHT22;2377;51.734;8.950;2023-11-21T01:29:46;7.10;99.90
4727;DHT22;2377;51.734;8.950;2023-11-21T01:32:13;7.10;99.90
4727;DHT22;2377;51.734;8.950;2023-11-21T01:34:41;7.10;99.90
4727;DHT22;2377;51.734;8.950;2023-11-21T01:37:08;7.10;99.90
4727;DHT22;2377;51.734;8.950;2023-11-21T01:39:37;7.00;84.20
4727;DHT22;2377;51.734;8.950;2023-11-21T01:42:07;7.00;94.40
4727;DHT22;2377;51.734;8.950;2023-11-21T01:44:35;7.00;66.00
4727;DHT22;2377;51.734;8.950;2023-11-21T01:47:03;6.80;72.40
4727;DHT22;2377;51.734;8.950;2023-11-21T01:49:32;6.70;85.00
4727;DHT22;2377;51.734;8.950;2023-11-21T01:52:00;6.70;66.00
4727;DHT22;2377;51.734;8.950;2023-11-21T01:54:32;6.70;86.40
4727;DHT22;2377;51.734;8.950;2023-11-21T01:57:05;6.60;99.90
4727;DHT22;2377;51.734;8.950;2023-11-21T01:59:36;6.60;99.90
4727;DHT22;2377;51.734;8.950;2023-11-21T02:02:06;6.70;99.90
4727;DHT22;2377;51.734;8.950;2023-11-21T02:04:36;6.70;99.90
4727;DHT22;2377;51.734;8.950;2023-11-21T02:07:04;6.70;99.90
4727;DHT22;2377;51.734;8.950;2023-11-21T02:09:40;6.70;99.90
4727;DHT22;2377;51.734;8.950;2023-11-21T02:12:08;6.70;99.90
4727;DHT22;2377;51.734;8.950;2023-11-21T02:14:37;6.70;99.90
4727;DHT22;2377;51.734;8.950;2023-11-21T02:17:05;6.80;99.90
4727;DHT22;2377;51.734;8.950;2023-11-21T02:19:33;6.70;99.80
4727;DHT22;2377;51.734;8.950;2023-11-21T02:22:00;6.70;99.90
4727;DHT22;2377;51.734;8.950;2023-11-21T02:24:33;6.70;92.80
4727;DHT22;2377;51.734;8.950;2023-11-21T02:27:03;6.60;99.90
4727;DHT22;2377;51.734;8.950;2023-11-21T02:29:32;6.70;99.90
4727;DHT22;2377;51.734;8.950;2023-11-21T02:31:59;6.70;99.90
4727;DHT22;2377;51.734;8.950;2023-11-21T02:34:26;6.70;99.90
4727;DHT22;2377;51.734;8.950;2023-11-21T02:36:53;6.70;99.90
4727;DHT22;2377;51.734;8.950;2023-11-21T02:39:23;6.70;99.90
4727;DHT22;2377;51.734;8.950;2023-11-21T02:41:57;6.80;99.90
4727;DHT22;2377;51.734;8.950;2023-11-21T02:44:25;6.80;99.90
4727;DHT22;2377;51.734;8.950;2023-11-21T02:46:55;6.80;99.90
4727;DHT22;2377;51.734;8.950;2023-11-21T02:49:23;6.80;99.90
4727;DHT22;2377;51.734;8.950;2023-11-21T02:51:54;6.80;99.90
4727;DHT22;2377;51.734;8.950;2023-11-21T02:54:21;6.90;99.90
4727;DHT22;2377;51.734;8.950;2023-11-21T02:56:48;6.90;99.90
4727;DHT22;2377;51.734;8.950;2023-11-21T02:59:18;7.00;99.90
4727;DHT22;2377;51.734;8.950;2023-11-21T03:01:45;7.00;99.90
4727;DHT22;2377;51.734;8.950;2023-11-21T03:04:12;7.00;99.90
4727;DHT22;2377;51.734;8.950;2023-11-21T03:06:43;6.90;99.90
4727;DHT22;2377;51.734;8.950;2023-11-21T03:09:11;6.80;99.90
4727;DHT22;2377;51.734;8.950;2023-11-21T03:11:40;6.90;99.90
4727;DHT22;2377;51.734;8.950;2023-11-21T03:14:07;6.90;99.90
4727;DHT22;2377;51.734;8.950;2023-11-21T03:16:36;6.90;99.90
4727;DHT22;2377;51.734;8.950;2023-11-21T03:19:03;7.00;99.90
4727;DHT22;2377;51.734;8.950;2023-11-21T03:21:31;7.00;99.90
4727;DHT22;2377;51.734;8.950;2023-11-21T03:24:02;7.00;99.90
4727;DHT22;2377;51.734;8.950;2023-11-21T03:26:29;7.00;99.90
4727;DHT22;2377;51.734;8.950;2023-11-21T03:28:56;7.00;99.90
4727;DHT22;2377;51.734;8.950;2023-11-21T03:31:23;7.00;99.90
4727;DHT22;2377;51.734;8.950;2023-11-21T03:33:52;7.10;99.90
4727;DHT22;2377;51.734;8.950;2023-11-21T03:36:19;7.10;99.90
4727;DHT22;2377;51.734;8.950;2023-11-21T03:38:48;7.10;99.90
4727;DHT22;2377;51.734;8.950;2023-11-21T03:41:17;7.20;99.90
4727;DHT22;2377;51.734;8.950;2023-11-21T03:43:44;7.20;99.90
4727;DHT22;2377;51.734;8.950;2023-11-21T03:46:11;7.20;99.90
4727;DHT22;2377;51.734;8.950;2023-11-21T03:48:38;7.30;99.90
4727;DHT22;2377;51.734;8.950;2023-11-21T03:51:09;7.30;99.90
4727;DHT22;2377;51.734;8.950;2023-11-21T03:53:36;7.30;99.90
4727;DHT22;2377;51.734;8.950;2023-11-21T03:56:04;7.30;99.90
4727;DHT22;2377;51.734;8.950;2023-11-21T03:58:31;7.40;99.90
4727;DHT22;2377;51.734;8.950;2023-11-21T04:00:59;7.40;99.90
4727;DHT22;2377;51.734;8.950;2023-11-21T04:03:27;7.40;99.90
4727;DHT22;2377;51.734;8.950;2023-11-21T04:05:54;7.40;99.90
4727;DHT22;2377;51.734;8.950;2023-11-21T04:08:22;7.40;99.90
4727;DHT22;2377;51.734;8.950;2023-11-21T04:10:51;7.50;99.90
4727;DHT22;2377;51.734;8.950;2023-11-21T04:13:21;7.50;99.90
4727;DHT22;2377;51.734;8.950;2023-11-21T04:15:48;7.50;99.90
4727;DHT22;2377;51.734;8.950;2023-11-21T04:18:16;7.50;99.90
4727;DHT22;2377;51.734;8.950;2023-11-21T04:20:43;7.50;99.90
4727;DHT22;2377;51.734;8.950;2023-11-21T04:23:10;7.50;99.90
4727;DHT22;2377;51.734;8.950;2023-11-21T04:25:40;7.50;99.90
4727;DHT22;2377;51.734;8.950;2023-11-21T04:28:07;7.60;99.90
4727;DHT22;2377;51.734;8.950;2023-11-21T04:30:34;7.50;99.90
4727;DHT22;2377;51.734;8.950;2023-11-21T04:33:02;7.60;99.90
4727;DHT22;2377;51.734;8.950;2023-11-21T04:35:29;7.60;99.90
4727;DHT22;2377;51.734;8.950;2023-11-21T04:37:56;7.60;99.90
4727;DHT22;2377;51.734;8.950;2023-11-21T04:40:23;7.60;99.90
4727;DHT22;2377;51.734;8.950;2023-11-21T04:42:54;7.60;99.90
4727;DHT22;2377;51.734;8.950;2023-11-21T04:45:22;7.60;99.90
4727;DHT22;2377;51.734;8.950;2023-11-21T04:47:50;7.60;99.90
4727;DHT22;2377;51.734;8.950;2023-11-21T04:50:18;7.60;99.90
4727;DHT22;2377;51.734;8.950;2023-11-21T04:52:45;7.60;99.90
4727;DHT22;2377;51.734;8.950;2023-11-21T04:55:13;7.60;99.90
4727;DHT22;2377;51.734;8.950;2023-11-21T04:57:41;7.60;99.90
4727;DHT22;2377;51.734;8.950;2023-11-21T05:00:11;7.60;99.90
4727;DHT22;2377;51.734;8.950;2023-11-21T05:02:40;7.60;99.90
4727;DHT22;2377;51.734;8.950;2023-11-21T05:05:09;7.60;99.90
4727;DHT22;2377;51.734;8.950;2023-11-21T05:07:37;7.60;99.90
4727;DHT22;2377;51.734;8.950;2023-11-21T05:10:05;7.60;99.90
4727;DHT22;2377;51.734;8.950;2023-11-21T05:12:37;7.60;99.90
4727;DHT22;2377;51.734;8.950;2023-11-21T05:15:05;7.60;99.90
4727;DHT22;2377;51.734;8.950;2023-11-21T05:17:41;7.60;99.90
4727;DHT22;2377;51.734;8.950;2023-11-21T05:20:10;7.60;99.90
4727;DHT22;2377;51.734;8.950;2023-11-21T05:22:39;7.60;99.90
4727;DHT22;2377;51.734;8.950;2023-11-21T05:25:08;7.60;99.90
4727;DHT22;2377;51.734;8.950;2023-11-21T05:27:36;7.60;99.90
4727;DHT22;2377;51.734;8.950;2023-11-21T05:30:05;7.60;99.90
4727;DHT22;2377;51.734;8.950;2023-11-21T05:32:40;7.60;99.90
4727;DHT22;2377;51.734;8.950;2023-11-21T05:35:09;7.60;99.90
4727;DHT22;2377;51.734;8.950;2023-11-21T05:37:41;7.60;99.90
4727;DHT22;2377;51.734;8.950;2023-11-21T05:40:09;7.60;99.90
4727;DHT22;2377;51.734;8.950;2023-11-21T05:42:36;7.60;99.90
4727;DHT22;2377;51.734;8.950;2023-11-21T05:45:05;7.60;99.90
4727;DHT22;2377;51.734;8.950;2023-11-21T05:47:36;7.60;99.90
4727;DHT22;2377;51.734;8.950;2023-11-21T05:50:07;7.60;99.90
4727;DHT22;2377;51.734;8.950;2023-11-21T05:52:40;7.60;99.90
4727;DHT22;2377;51.734;8.950;2023-11-21T05:55:09;7.60;99.90
4727;DHT22;2377;51.734;8.950;2023-11-21T05:57:41;7.60;99.90
4727;DHT22;2377;51.734;8.950;2023-11-21T06:00:12;7.60;99.90
4727;DHT22;2377;51.734;8.950;2023-11-21T06:02:46;7.60;99.90
4727;DHT22;2377;51.734;8.950;2023-11-21T06:05:19;7.60;99.90
4727;DHT22;2377;51.734;8.950;2023-11-21T06:07:50;7.60;99.90
4727;DHT22;2377;51.734;8.950;2023-11-21T06:10:20;7.60;99.90
4727;DHT22;2377;51.734;8.950;2023-11-21T06:12:49;7.60;99.90
4727;DHT22;2377;51.734;8.950;2023-11-21T06:15:16;7.70;99.90
4727;DHT22;2377;51.734;8.950;2023-11-21T06:17:49;7.70;99.90
4727;DHT22;2377;51.734;8.950;2023-11-21T06:20:19;7.70;99.90
4727;DHT22;2377;51.734;8.950;2023-11-21T06:22:47;7.70;99.90
4727;DHT22;2377;51.734;8.950;2023-11-21T06:25:15;7.70;99.90
4727;DHT22;2377;51.734;8.950;2023-11-21T06:27:45;7.80;99.90
4727;DHT22;2377;51.734;8.950;2023-11-21T06:30:14;7.70;99.90
4727;DHT22;2377;51.734;8.950;2023-11-21T06:32:45;7.70;99.90
4727;DHT22;2377;51.734;8.950;2023-11-21T06:35:13;7.80;99.90
4727;DHT22;2377;51.734;8.950;2023-11-21T06:37:45;7.70;99.90
4727;DHT22;2377;51.734;8.950;2023-11-21T06:40:13;7.70;99.90
4727;DHT22;2377;51.734;8.950;2023-11-21T06:42:41;7.80;99.90
4727;DHT22;2377;51.734;8.950;2023-11-21T06:45:10;7.80;99.90
4727;DHT22;2377;51.734;8.950;2023-11-21T06:47:40;7.80;99.90
4727;DHT22;2377;51.734;8.950;2023-11-21T06:50:14;7.80;99.90
4727;DHT22;2377;51.734;8.950;2023-11-21T06:52:55;7.80;99.90
4727;DHT22;2377;51.734;8.950;2023-11-21T06:55:22;7.80;99.90
4727;DHT22;2377;51.734;8.950;2023-11-21T06:57:49;7.80;99.90
4727;DHT22;2377;51.734;8.950;2023-11-21T07:00:18;7.80;99.90
4727;DHT22;2377;51.734;8.950;2023-11-21T07:02:45;7.80;99.90
4727;DHT22;2377;51.734;8.950;2023-11-21T07:05:15;7.80;99.90
4727;DHT22;2377;51.734;8.950;2023-11-21T07:07:46;7.80;99.90
4727;DHT22;2377;51.734;8.950;2023-11-21T07:10:18;7.80;99.90
4727;DHT22;2377;51.734;8.950;2023-11-21T07:12:46;7.80;99.90
4727;DHT22;2377;51.734;8.950;2023-11-21T07:15:13;7.90;99.90
4727;DHT22;2377;51.734;8.950;2023-11-21T07:17:40;7.90;99.90
4727;DHT22;2377;51.734;8.950;2023-11-21T07:20:10;7.90;99.90
4727;DHT22;2377;51.734;8.950;2023-11-21T07:22:39;8.00;99.90
4727;DHT22;2377;51.734;8.950;2023-11-21T07:25:09;8.00;99.90
4727;DHT22;2377;51.734;8.950;2023-11-21T07:27:38;8.00;99.90
4727;DHT22;2377;51.734;8.950;2023-11-21T07:30:07;8.00;99.90
4727;DHT22;2377;51.734;8.950;2023-11-21T07:32:39;8.00;99.90
4727;DHT22;2377;51.734;8.950;2023-11-21T07:35:07;8.00;99.90
4727;DHT22;2377;51.734;8.950;2023-11-21T07:37:42;8.00;99.90
4727;DHT22;2377;51.734;8.950;2023-11-21T07:40:14;8.00;99.90
4727;DHT22;2377;51.734;8.950;2023-11-21T07:42:44;8.00;99.90
4727;DHT22;2377;51.734;8.950;2023-11-21T07:45:11;8.00;99.90
4727;DHT22;2377;51.734;8.950;2023-11-21T07:47:39;8.00;99.90
4727;DHT22;2377;51.734;8.950;2023-11-21T07:50:07;8.00;99.90
4727;DHT22;2377;51.734;8.950;2023-11-21T07:52:36;8.00;99.90
4727;DHT22;2377;51.734;8.950;2023-11-21T07:55:04;8.00;99.90
4727;DHT22;2377;51.734;8.950;2023-11-21T07:57:33;8.00;99.90
4727;DHT22;2377;51.734;8.950;2023-11-21T08:00:01;8.00;99.90
4727;DHT22;2377;51.734;8.950;2023-11-21T08:02:32;8.00;99.90
4727;DHT22;2377;51.734;8.950;2023-11-21T08:05:00;8.00;99.90
4727;DHT22;2377;51.734;8.950;2023-11-21T08:07:27;8.00;99.90
4727;DHT22;2377;51.734;8.950;2023-11-21T08:09:54;7.90;99.90
4727;DHT22;2377;51.734;8.950;2023-11-21T08:12:22;7.90;99.90
4727;DHT22;2377;51.734;8.950;2023-11-21T08:14:49;7.90;99.90
4727;DHT22;2377;51.734;8.950;2023-11-21T08:17:18;7.90;99.90
4727;DHT22;2377;51.734;8.950;2023-11-21T08:19:49;7.90;99.90
4727;DHT22;2377;51.734;8.950;2023-11-21T08:22:17;7.90;99.90
4727;DHT22;2377;51.734;8.950;2023-11-21T08:24:44;7.90;99.90
4727;DHT22;2377;51.734;8.950;2023-11-21T08:27:12;7.90;99.90
4727;DHT22;2377;51.734;8.950;2023-11-21T08:29:43;7.90;99.90
4727;DHT22;2377;51.734;8.950;2023-11-21T08:32:10;8.00;99.90
4727;DHT22;2377;51.734;8.950;2023-11-21T08:34:39;8.00;99.90
4727;DHT22;2377;51.734;8.950;2023-11-21T08:37:08;8.00;99.90
4727;DHT22;2377;51.734;8.950;2023-11-21T08:39:37;8.00;99.90
4727;DHT22;2377;51.734;8.950;2023-11-21T08:42:04;8.00;99.90
4727;DHT22;2377;51.734;8.950;2023-11-21T08:44:31;8.00;99.90
4727;DHT22;2377;51.734;8.950;2023-11-21T08:46:59;8.00;99.90
4727;DHT22;2377;51.734;8.950;2023-11-21T08:49:26;8.00;99.90
4727;DHT22;2377;51.734;8.950;2023-11-21T08:51:56;8.00;99.90
4727;DHT22;2377;51.734;8.950;2023-11-21T08:54:25;8.00;99.90
4727;DHT22;2377;51.734;8.950;2023-11-21T08:56:53;8.00;99.90
4727;DHT22;2377;51.734;8.950;2023-11-21T08:59:21;8.10;99.90
4727;DHT22;2377;51.734;8.950;2023-11-21T09:01:48;8.10;99.90
4727;DHT22;2377;51.734;8.950;2023-11-21T09:04:16;8.10;99.90
4727;DHT22;2377;51.734;8.950;2023-11-21T09:06:43;8.10;99.90
4727;DHT22;2377;51.734;8.950;2023-11-21T09:09:12;8.10;99.90
4727;DHT22;2377;51.734;8.950;2023-11-21T09:11:40;8.10;99.90
4727;DHT22;2377;51.734;8.950;2023-11-21T09:14:11;8.10;99.90
4727;DHT22;2377;51.734;8.950;2023-11-21T09:16:45;8.10;99.90
4727;DHT22;2377;51.734;8.950;2023-11-21T09:19:12;8.10;99.90
4727;DHT22;2377;51.734;8.950;2023-11-21T09:21:41;8.10;99.90
4727;DHT22;2377;51.734;8.950;2023-11-21T09:24:09;8.20;99.90
4727;DHT22;2377;51.734;8.950;2023-11-21T09:26:38;8.20;99.90
4727;DHT22;2377;51.734;8.950;2023-11-21T09:29:07;8.20;99.90
4727;DHT22;2377;51.734;8.950;2023-11-21T09:31:36;8.20;99.90
4727;DHT22;2377;51.734;8.950;2023-11-21T09:34:04;8.20;99.90
4727;DHT22;2377;51.734;8.950;2023-11-21T09:36:33;8.20;99.90
4727;DHT22;2377;51.734;8.950;2023-11-21T09:39:00;8.20;99.90
4727;DHT22;2377;51.734;8.950;2023-11-21T09:41:42;8.10;99.90
4727;DHT22;2377;51.734;8.950;2023-11-21T09:44:18;8.10;99.90
4727;DHT22;2377;51.734;8.950;2023-11-21T09:46:49;8.10;99.90
4727;DHT22;2377;51.734;8.950;2023-11-21T09:49:23;8.10;99.90
4727;DHT22;2377;51.734;8.950;2023-11-21T09:51:55;8.10;99.90
4727;DHT22;2377;51.734;8.950;2023-11-21T09:54:28;8.10;99.90
4727;DHT22;2377;51.734;8.950;2023-11-21T09:56:59;8.10;99.90
4727;DHT22;2377;51.734;8.950;2023-11-21T09:59:30;8.10;99.90
4727;DHT22;2377;51.734;8.950;2023-11-21T10:01:58;8.10;99.90
4727;DHT22;2377;51.734;8.950;2023-11-21T10:04:28;8.10;99.90
4727;DHT22;2377;51.734;8.950;2023-11-21T10:06:56;8.10;99.90
4727;DHT22;2377;51.734;8.950;2023-11-21T10:09:24;8.10;99.90
4727;DHT22;2377;51.734;8.950;2023-11-21T10:11:52;8.10;99.90
4727;DHT22;2377;51.734;8.950;2023-11-21T10:14:24;8.10;99.90
4727;DHT22;2377;51.734;8.950;2023-11-21T10:16:55;8.10;99.90
4727;DHT22;2377;51.734;8.950;2023-11-21T10:19:24;8.10;99.90
4727;DHT22;2377;51.734;8.950;2023-11-21T10:21:53;8.10;99.90
4727;DHT22;2377;51.734;8.950;2023-11-21T10:24:21;8.10;99.90
4727;DHT22;2377;51.734;8.950;2023-11-21T10:26:49;8.10;99.90
4727;DHT22;2377;51.734;8.950;2023-11-21T10:29:17;8.10;99.90
4727;DHT22;2377;51.734;8.950;2023-11-21T10:31:50;8.10;99.90
4727;DHT22;2377;51.734;8.950;2023-11-21T10:34:20;8.10;99.90
4727;DHT22;2377;51.734;8.950;2023-11-21T10:36:53;8.10;99.90
4727;DHT22;2377;51.734;8.950;2023-11-21T10:39:24;8.10;99.90
4727;DHT22;2377;51.734;8.950;2023-11-21T10:41:55;8.10;99.90
4727;DHT22;2377;51.734;8.950;2023-11-21T10:44:22;8.10;99.90
4727;DHT22;2377;51.734;8.950;2023-11-21T10:46:55;8.10;99.90
4727;DHT22;2377;51.734;8.950;2023-11-21T10:49:24;8.10;99.90
4727;DHT22;2377;51.734;8.950;2023-11-21T10:51:53;8.10;99.90
4727;DHT22;2377;51.734;8.950;2023-11-21T10:54:21;8.10;99.90
4727;DHT22;2377;51.734;8.950;2023-11-21T10:56:53;8.10;99.90
4727;DHT22;2377;51.734;8.950;2023-11-21T10:59:29;8.10;99.90
4727;DHT22;2377;51.734;8.950;2023-11-21T11:01:59;8.10;99.90
4727;DHT22;2377;51.734;8.950;2023-11-21T11:04:29;8.10;99.90
4727;DHT22;2377;51.734;8.950;2023-11-21T11:06:58;8.10;99.90
4727;DHT22;2377;51.734;8.950;2023-11-21T11:09:31;8.10;99.90
4727;DHT22;2377;51.734;8.950;2023-11-21T11:12:02;8.10;99.90
4727;DHT22;2377;51.734;8.950;2023-11-21T11:14:32;8.10;99.90
4727;DHT22;2377;51.734;8.950;2023-11-21T11:17:01;8.10;99.90
4727;DHT22;2377;51.734;8.950;2023-11-21T11:19:34;8.10;99.90
4727;DHT22;2377;51.734;8.950;2023-11-21T11:22:11;8.10;99.90
4727;DHT22;2377;51.734;8.950;2023-11-21T11:25:08;8.10;99.90
4727;DHT22;2377;51.734;8.950;2023-11-21T11:27:52;8.20;99.90
4727;DHT22;2377;51.734;8.950;2023-11-21T11:30:37;8.10;99.90
4727;DHT22;2377;51.734;8.950;2023-11-21T11:33:29;8.10;99.90
4727;DHT22;2377;51.734;8.950;2023-11-21T11:36:06;8.10;99.90
4727;DHT22;2377;51.734;8.950;2023-11-21T11:38:45;8.10;99.90
4727;DHT22;2377;51.734;8.950;2023-11-21T11:41:24;8.10;99.90
4727;DHT22;2377;51.734;8.950;2023-11-21T11:44:51;8.10;99.90
4727;DHT22;2377;51.734;8.950;2023-11-21T11:47:25;8.00;99.90
4727;DHT22;2377;51.734;8.950;2023-11-21T11:50:03;8.00;99.90
4727;DHT22;2377;51.734;8.950;2023-11-21T11:52:41;7.90;99.90
4727;DHT22;2377;51.734;8.950;2023-11-21T11:55:10;8.00;99.90
4727;DHT22;2377;51.734;8.950;2023-11-21T11:57:39;7.90;99.90
4727;DHT22;2377;51.734;8.950;2023-11-21T12:00:15;7.90;99.90
4727;DHT22;2377;51.734;8.950;2023-11-21T12:02:49;7.80;99.90
4727;DHT22;2377;51.734;8.950;2023-11-21T12:05:21;7.80;99.90
4727;DHT22;2377;51.734;8.950;2023-11-21T12:07:50;7.80;99.90
4727;DHT22;2377;51.734;8.950;2023-11-21T12:10:21;7.70;99.90
4727;DHT22;2377;51.734;8.950;2023-11-21T12:12:51;7.70;99.90
4727;DHT22;2377;51.734;8.950;2023-11-21T12:15:20;7.60;99.90
4727;DHT22;2377;51.734;8.950;2023-11-21T12:17:48;7.60;99.90
4727;DHT22;2377;51.734;8.950;2023-11-21T12:20:21;7.60;99.90
4727;DHT22;2377;51.734;8.950;2023-11-21T12:22:50;7.70;99.90
4727;DHT22;2377;51.734;8.950;2023-11-21T12:25:20;7.60;99.90
4727;DHT22;2377;51.734;8.950;2023-11-21T12:27:56;7.60;99.90
4727;DHT22;2377;51.734;8.950;2023-11-21T12:30:25;7.50;99.90
4727;DHT22;2377;51.734;8.950;2023-11-21T12:32:57;7.60;99.90
4727;DHT22;2377;51.734;8.950;2023-11-21T12:35:29;7.60;99.90
4727;DHT22;2377;51.734;8.950;2023-11-21T12:38:00;7.60;99.90
4727;DHT22;2377;51.734;8.950;2023-11-21T12:40:30;7.50;63.40
4727;DHT22;2377;51.734;8.950;2023-11-21T12:43:00;7.50;99.90
4727;DHT22;2377;51.734;8.950;2023-11-21T12:45:30;7.40;99.90
4727;DHT22;2377;51.734;8.950;2023-11-21T12:48:01;7.50;99.90
4727;DHT22;2377;51.734;8.950;2023-11-21T12:50:35;7.50;99.90
4727;DHT22;2377;51.734;8.950;2023-11-21T12:53:05;7.50;99.90
4727;DHT22;2377;51.734;8.950;2023-11-21T12:55:36;7.50;99.90
4727;DHT22;2377;51.734;8.950;2023-11-21T12:58:04;7.50;99.90
4727;DHT22;2377;51.734;8.950;2023-11-21T13:00:39;7.30;99.90
4727;DHT22;2377;51.734;8.950;2023-11-21T13:03:11;7.30;99.90
4727;DHT22;2377;51.734;8.950;2023-11-21T13:05:45;7.20;99.90
4727;DHT22;2377;51.734;8.950;2023-11-21T13:08:17;7.10;99.90
4727;DHT22;2377;51.734;8.950;2023-11-21T13:10:49;7.10;99.90
4727;DHT22;2377;51.734;8.950;2023-11-21T13:13:20;7.10;99.90
4727;DHT22;2377;51.734;8.950;2023-11-21T13:15:51;7.10;99.90
4727;DHT22;2377;51.734;8.950;2023-11-21T13:18:21;7.10;99.90
4727;DHT22;2377;51.734;8.950;2023-11-21T13:20:50;7.10;99.90
4727;DHT22;2377;51.734;8.950;2023-11-21T13:23:22;7.20;99.90
4727;DHT22;2377;51.734;8.950;2023-11-21T13:25:51;7.20;99.90
4727;DHT22;2377;51.734;8.950;2023-11-21T13:28:19;7.10;99.90
4727;DHT22;2377;51.734;8.950;2023-11-21T13:30:52;7.10;99.90
4727;DHT22;2377;51.734;8.950;2023-11-21T13:33:22;7.10;99.90
4727;DHT22;2377;51.734;8.950;2023-11-21T13:35:54;7.10;96.20
4727;DHT22;2377;51.734;8.950;2023-11-21T13:38:22;7.10;99.90
4727;DHT22;2377;51.734;8.950;2023-11-21T13:40:51;7.10;99.90
4727;DHT22;2377;51.734;8.950;2023-11-21T13:43:21;7.10;82.90
4727;DHT22;2377;51.734;8.950;2023-11-21T13:45:54;7.00;68.60
4727;DHT22;2377;51.734;8.950;2023-11-21T13:48:26;7.00;73.90
4727;DHT22;2377;51.734;8.950;2023-11-21T13:51:01;6.90;83.70
4727;DHT22;2377;51.734;8.950;2023-11-21T13:53:38;6.80;93.80
4727;DHT22;2377;51.734;8.950;2023-11-21T13:56:08;6.80;90.50
4727;DHT22;2377;51.734;8.950;2023-11-21T13:58:36;6.90;90.50
4727;DHT22;2377;51.734;8.950;2023-11-21T14:01:10;6.80;89.00
4727;DHT22;2377;51.734;8.950;2023-11-21T14:03:54;6.90;76.70
4727;DHT22;2377;51.734;8.950;2023-11-21T14:06:30;6.90;88.90
4727;DHT22;2377;51.734;8.950;2023-11-21T14:09:00;6.80;38.80
4727;DHT22;2377;51.734;8.950;2023-11-21T14:11:31;6.70;45.60
4727;DHT22;2377;51.734;8.950;2023-11-21T14:14:00;6.60;45.00
4727;DHT22;2377;51.734;8.950;2023-11-21T14:16:29;6.60;48.90
4727;DHT22;2377;51.734;8.950;2023-11-21T14:18:56;6.60;68.70
4727;DHT22;2377;51.734;8.950;2023-11-21T14:21:30;6.70;53.00
4727;DHT22;2377;51.734;8.950;2023-11-21T14:24:00;6.80;45.10
4727;DHT22;2377;51.734;8.950;2023-11-21T14:26:28;6.80;53.90
4727;DHT22;2377;51.734;8.950;2023-11-21T14:28:56;6.80;51.00
4727;DHT22;2377;51.734;8.950;2023-11-21T14:31:25;6.80;47.50
4727;DHT22;2377;51.734;8.950;2023-11-21T14:33:56;6.70;48.10
4727;DHT22;2377;51.734;8.950;2023-11-21T14:36:27;6.70;50.90
4727;DHT22;2377;51.734;8.950;2023-11-21T14:38:56;6.60;71.30
4727;DHT22;2377;51.734;8.950;2023-11-21T14:41:25;6.60;77.80
4727;DHT22;2377;51.734;8.950;2023-11-21T14:43:55;6.70;74.30
4727;DHT22;2377;51.734;8.950;2023-11-21T14:46:23;6.80;67.40
4727;DHT22;2377;51.734;8.950;2023-11-21T14:48:51;6.80;58.40
4727;DHT22;2377;51.734;8.950;2023-11-21T14:51:31;6.70;60.10
4727;DHT22;2377;51.734;8.950;2023-11-21T14:54:14;6.70;41.90
4727;DHT22;2377;51.734;8.950;2023-11-21T14:56:48;6.60;52.50
4727;DHT22;2377;51.734;8.950;2023-11-21T14:59:15;6.60;62.70
4727;DHT22;2377;51.734;8.950;2023-11-21T15:01:43;6.60;45.90
4727;DHT22;2377;51.734;8.950;2023-11-21T15:04:19;6.60;32.30
4727;DHT22;2377;51.734;8.950;2023-11-21T15:06:58;6.50;42.20
4727;DHT22;2377;51.734;8.950;2023-11-21T15:09:25;6.50;55.00
4727;DHT22;2377;51.734;8.950;2023-11-21T15:12:05;6.40;61.20
4727;DHT22;2377;51.734;8.950;2023-11-21T15:14:41;6.40;49.00
4727;DHT22;2377;51.734;8.950;2023-11-21T15:17:11;6.30;61.20
4727;DHT22;2377;51.734;8.950;2023-11-21T15:19:42;6.30;59.10
4727;DHT22;2377;51.734;8.950;2023-11-21T15:22:12;6.40;59.40
4727;DHT22;2377;51.734;8.950;2023-11-21T15:24:41;6.30;52.50
4727;DHT22;2377;51.734;8.950;2023-11-21T15:27:12;6.30;37.70
4727;DHT22;2377;51.734;8.950;2023-11-21T15:29:41;6.30;54.80
4727;DHT22;2377;51.734;8.950;2023-11-21T15:32:11;6.30;41.60
4727;DHT22;2377;51.734;8.950;2023-11-21T15:34:39;6.20;39.30
4727;DHT22;2377;51.734;8.950;2023-11-21T15:37:08;6.20;46.40
4727;DHT22;2377;51.734;8.950;2023-11-21T15:39:39;6.20;45.90
4727;DHT22;2377;51.734;8.950;2023-11-21T15:42:07;6.30;37.40
4727;DHT22;2377;51.734;8.950;2023-11-21T15:44:35;6.30;24.70
4727;DHT22;2377;51.734;8.950;2023-11-21T15:47:05;6.30;20.70
4727;DHT22;2377;51.734;8.950;2023-11-21T15:49:34;6.20;7.00
4727;DHT22;2377;51.734;8.950;2023-11-21T15:52:05;6.10;12.50
4727;DHT22;2377;51.734;8.950;2023-11-21T15:54:35;6.10;10.50
4727;DHT22;2377;51.734;8.950;2023-11-21T15:57:05;6.10;19.80
4727;DHT22;2377;51.734;8.950;2023-11-21T15:59:33;6.10;6.40
4727;DHT22;2377;51.734;8.950;2023-11-21T16:02:03;6.20;12.70
4727;DHT22;2377;51.734;8.950;2023-11-21T16:04:30;6.10;7.30
4727;DHT22;2377;51.734;8.950;2023-11-21T16:06:58;6.10;18.00
4727;DHT22;2377;51.734;8.950;2023-11-21T16:09:27;6.10;20.40
4727;DHT22;2377;51.734;8.950;2023-11-21T16:11:57;6.10;18.50
4727;DHT22;2377;51.734;8.950;2023-11-21T16:14:28;6.10;24.20
4727;DHT22;2377;51.734;8.950;2023-11-21T16:17:01;6.10;29.90
4727;DHT22;2377;51.734;8.950;2023-11-21T16:19:29;6.20;26.90
4727;DHT22;2377;51.734;8.950;2023-11-21T16:21:56;6.30;22.40
4727;DHT22;2377;51.734;8.950;2023-11-21T16:24:23;6.20;18.80
4727;DHT22;2377;51.734;8.950;2023-11-21T16:26:53;6.30;29.50
4727;DHT22;2377;51.734;8.950;2023-11-21T16:29:23;6.30;32.10
4727;DHT22;2377;51.734;8.950;2023-11-21T16:31:50;6.30;29.40
4727;DHT22;2377;51.734;8.950;2023-11-21T16:34:20;6.30;29.60